createdAt,value
2022-08-17T00:00:42.684Z,99854.52
2022-08-17T00:03:18.107Z,99857.87
2022-08-17T00:05:48.536Z,99853.38
2022-08-17T00:08:20.205Z,99853.11
2022-08-17T00:10:50.331Z,99850.91
2022-08-17T00:13:21.625Z,99850.05
2022-08-17T00:15:51.729Z,99850.17
2022-08-17T00:19:06.057Z,99848.27
2022-08-17T00:21:10.829Z,99849.44
2022-08-17T00:23:44.268Z,99847.20
2022-08-17T00:26:34.891Z,99850.88
2022-08-17T00:29:09.838Z,99857.44
2022-08-17T00:31:49.374Z,99856.79
2022-08-17T00:34:18.220Z,99858.59
2022-08-17T00:36:46.568Z,99856.87
2022-08-17T00:39:14.937Z,99849.83
2022-08-17T00:41:43.485Z,99851.99
2022-08-17T00:44:12.571Z,99854.89
2022-08-17T00:46:43.146Z,99853.17
2022-08-17T00:49:13.228Z,99850.14
2022-08-17T00:51:50.966Z,99850.12
2022-08-17T00:54:24.411Z,99853.30
2022-08-17T00:57:16.074Z,99853.01
2022-08-17T01:00:02.014Z,99851.48
2022-08-17T01:02:42.391Z,99854.20
2022-08-17T01:05:26.606Z,99853.97
2022-08-17T01:07:57.776Z,99852.09
2022-08-17T01:10:58.523Z,99853.86
2022-08-17T01:13:39.770Z,99855.27
2022-08-17T01:16:26.501Z,99854.79
2022-08-17T01:18:59.677Z,99853.92
2022-08-17T01:21:36.559Z,99851.51
2022-08-17T01:24:05.396Z,99857.63
2022-08-17T01:26:35.781Z,99857.86
2022-08-17T01:29:05.736Z,99854.50
2022-08-17T01:31:39.010Z,99854.91
2022-08-17T01:34:10.946Z,99859.05
2022-08-17T01:36:42.608Z,99859.60
2022-08-17T01:39:21.735Z,99857.44
2022-08-17T01:41:53.809Z,99862.27
2022-08-17T01:44:24.219Z,99863.91
2022-08-17T01:46:53.337Z,99862.94
2022-08-17T01:49:21.876Z,99859.15
2022-08-17T01:51:50.421Z,99856.75
2022-08-17T01:54:20.985Z,99853.30
2022-08-17T01:56:53.131Z,99858.36
2022-08-17T01:59:21.555Z,99858.20
2022-08-17T02:01:50.916Z,99855.20
2022-08-17T02:04:19.236Z,99858.21
2022-08-17T02:06:53.416Z,99860.80
2022-08-17T02:09:25.897Z,99864.84
2022-08-17T02:11:56.388Z,99866.09
2022-08-17T02:14:26.323Z,99861.89
2022-08-17T02:16:56.282Z,99863.20
2022-08-17T02:19:24.777Z,99860.42
2022-08-17T02:21:54.563Z,99861.05
2022-08-17T02:24:59.469Z,99859.90
2022-08-17T02:27:17.957Z,99855.77
2022-08-17T02:29:46.406Z,99854.23
2022-08-17T02:32:28.089Z,99854.69
2022-08-17T02:34:58.346Z,99852.67
2022-08-17T02:37:28.582Z,99850.88
2022-08-17T02:39:58.671Z,99852.73
2022-08-17T02:42:34.282Z,99853.70
2022-08-17T02:45:05.546Z,99855.14
2022-08-17T02:47:34.953Z,99856.86
2022-08-17T02:50:05.874Z,99857.48
2022-08-17T02:52:42.766Z,99859.34
2022-08-17T02:55:20.806Z,99858.83
2022-08-17T02:57:50.411Z,99856.48
2022-08-17T03:00:22.956Z,99855.35
2022-08-17T03:02:52.296Z,99852.09
2022-08-17T03:05:24.282Z,99856.41
2022-08-17T03:07:52.836Z,99860.52
2022-08-17T03:10:24.913Z,99859.98
2022-08-17T03:12:54.362Z,99861.62
2022-08-17T03:15:31.165Z,99865.83
2022-08-17T03:18:01.972Z,99863.33
2022-08-17T03:20:32.568Z,99861.51
2022-08-17T03:23:02.696Z,99860.20
2022-08-17T03:25:37.913Z,99861.48
2022-08-17T03:28:08.206Z,99864.54
2022-08-17T03:30:37.015Z,99862.61
2022-08-17T03:33:07.838Z,99864.86
2022-08-17T03:35:40.573Z,99858.90
2022-08-17T03:38:11.188Z,99861.14
2022-08-17T03:40:57.975Z,99860.52
2022-08-17T03:43:31.593Z,99863.27
2022-08-17T03:46:27.103Z,99868.92
2022-08-17T03:49:26.744Z,99870.52
2022-08-17T03:52:16.107Z,99873.42
2022-08-17T03:55:03.421Z,99877.05
2022-08-17T03:57:32.577Z,99874.86
2022-08-17T04:00:01.183Z,99871.02
2022-08-17T04:02:33.132Z,99870.23
2022-08-17T04:05:02.291Z,99871.73
2022-08-17T04:07:31.860Z,99875.48
2022-08-17T04:10:00.562Z,99879.90
2022-08-17T04:12:31.931Z,99882.27
2022-08-17T04:15:00.241Z,99879.11
2022-08-17T04:17:29.725Z,99881.27
2022-08-17T04:19:58.503Z,99880.24
2022-08-17T04:22:33.039Z,99879.40
2022-08-17T04:25:07.294Z,99883.27
2022-08-17T04:27:36.159Z,99882.86
2022-08-17T04:30:07.537Z,99881.69
2022-08-17T04:33:00.440Z,99883.73
2022-08-17T04:35:50.789Z,99883.51
2022-08-17T04:38:22.044Z,99887.21
2022-08-17T04:41:10.489Z,99887.85
2022-08-17T04:43:40.882Z,99893.96
2022-08-17T04:46:12.736Z,99901.45
2022-08-17T04:48:46.854Z,99901.02
2022-08-17T04:51:23.216Z,99904.83
2022-08-17T04:53:54.997Z,99905.27
2022-08-17T04:56:26.126Z,99902.39
2022-08-17T04:58:57.912Z,99904.66
2022-08-17T05:01:28.837Z,99907.48
2022-08-17T05:03:59.727Z,99900.20
2022-08-17T05:06:30.947Z,99900.00
2022-08-17T05:08:59.624Z,99898.89
2022-08-17T05:11:29.979Z,99900.23
2022-08-17T05:13:59.890Z,99901.75
2022-08-17T05:16:29.052Z,99902.34
2022-08-17T05:18:59.481Z,99901.26
2022-08-17T05:21:28.522Z,99901.19
2022-08-17T05:23:59.051Z,99899.62
2022-08-17T05:26:29.365Z,99909.23
2022-08-17T05:29:02.527Z,99908.41
2022-08-17T05:31:32.028Z,99908.58
2022-08-17T05:34:00.396Z,99909.95
2022-08-17T05:36:38.070Z,99908.07
2022-08-17T05:39:16.151Z,99911.16
2022-08-17T05:41:48.575Z,99913.31
2022-08-17T05:44:17.257Z,99918.38
2022-08-17T05:46:50.379Z,99917.08
2022-08-17T05:49:27.352Z,99916.97
2022-08-17T05:52:18.831Z,99915.35
2022-08-17T05:55:07.326Z,99921.62
2022-08-17T05:57:56.035Z,99920.07
2022-08-17T06:00:51.143Z,99921.14
2022-08-17T06:03:41.098Z,99918.98
2022-08-17T06:06:17.636Z,99914.27
2022-08-17T06:09:04.215Z,99919.86
2022-08-17T06:11:32.797Z,99926.52
2022-08-17T06:14:31.001Z,99926.05
2022-08-17T06:17:04.915Z,99928.94
2022-08-17T06:20:00.734Z,99933.39
2022-08-17T06:22:42.534Z,99934.20
2022-08-17T06:25:16.590Z,99934.15
2022-08-17T06:27:55.902Z,99936.14
2022-08-17T06:30:28.610Z,99937.31
2022-08-17T06:33:23.024Z,99943.39
2022-08-17T06:36:09.277Z,99948.90
2022-08-17T06:38:53.820Z,99945.60
2022-08-17T06:41:43.220Z,99945.95
2022-08-17T06:44:42.128Z,99949.56
2022-08-17T06:47:28.456Z,99948.94
2022-08-17T06:50:03.544Z,99951.93
2022-08-17T06:52:46.730Z,99950.55
2022-08-17T06:58:33.501Z,99947.65
2022-08-17T07:01:17.094Z,99955.70
2022-08-17T07:04:05.164Z,99955.27
2022-08-17T07:06:46.569Z,99952.91
2022-08-17T07:09:41.224Z,99953.35
2022-08-17T07:12:16.503Z,99957.42
2022-08-17T07:14:57.551Z,99956.52
2022-08-17T07:17:46.715Z,99957.15
2022-08-17T07:20:22.889Z,99966.09
2022-08-17T07:23:09.127Z,99967.51
2022-08-17T07:25:37.475Z,99973.48
2022-08-17T07:28:08.033Z,99975.36
2022-08-17T07:30:50.416Z,99978.98
2022-08-17T07:33:23.951Z,99983.13
2022-08-17T07:35:53.060Z,99980.42
2022-08-17T07:38:24.800Z,99978.10
2022-08-17T07:41:05.416Z,99980.46
2022-08-17T07:43:48.169Z,99977.05
2022-08-17T07:46:54.920Z,99980.48
2022-08-17T07:49:31.639Z,99981.40
2022-08-17T07:52:48.145Z,99981.39
2022-08-17T07:54:53.141Z,99981.36
2022-08-17T07:57:26.648Z,99978.23
2022-08-17T08:00:01.734Z,99983.09
2022-08-17T08:02:35.771Z,99981.08
2022-08-17T08:05:07.203Z,99981.82
2022-08-17T08:07:55.167Z,99978.88
2022-08-17T08:10:35.889Z,99985.45
2022-08-17T08:13:12.290Z,99979.73
2022-08-17T08:15:54.922Z,99980.02
2022-08-17T08:18:38.605Z,99981.14
2022-08-17T08:21:42.567Z,99982.14
2022-08-17T08:24:22.620Z,99980.73
2022-08-17T08:37:12.748Z,99983.55
2022-08-17T08:40:39.567Z,99986.25
2022-08-17T08:58:00.981Z,99986.75
2022-08-17T08:58:05.959Z,99986.83
2022-08-17T09:08:58.814Z,99993.70
2022-08-17T09:12:56.551Z,99990.08
2022-08-17T09:17:12.787Z,99991.03
2022-08-17T09:49:28.227Z,99980.44
2022-08-17T09:52:28.356Z,99983.67
2022-08-17T09:55:00.410Z,99980.48
2022-08-17T09:57:56.449Z,99981.45
2022-08-17T10:00:33.293Z,99980.20
2022-08-17T10:03:18.484Z,99980.36
2022-08-17T10:06:21.738Z,99973.05
2022-08-17T10:09:09.103Z,99974.48
2022-08-17T10:12:11.728Z,99973.10
2022-08-17T10:14:53.629Z,99974.20
2022-08-17T10:17:30.026Z,99977.14
2022-08-17T10:20:13.335Z,99974.05
2022-08-17T10:23:09.470Z,99976.27
2022-08-17T10:26:13.423Z,99973.38
2022-08-17T10:28:54.157Z,99970.46
2022-08-17T10:31:35.478Z,99972.32
2022-08-17T10:34:19.422Z,99975.09
2022-08-17T10:37:00.376Z,99977.48
2022-08-17T10:39:52.739Z,99975.67
2022-08-17T10:42:50.814Z,99974.98
2022-08-17T10:45:48.860Z,99968.15
2022-08-17T10:48:39.264Z,99973.50
2022-08-17T10:51:39.388Z,99974.36
2022-08-17T10:54:26.133Z,99971.59
2022-08-17T11:03:11.942Z,99964.47
2022-08-17T11:41:36.571Z,99965.84
2022-08-17T11:45:46.422Z,99965.02
2022-08-17T12:33:31.882Z,99945.20
2022-08-17T12:34:14.990Z,99946.94
2022-08-17T12:37:50.997Z,99945.64
2022-08-17T12:47:53.204Z,99949.22
2022-08-17T12:58:29.724Z,99934.09
2022-08-17T13:08:43.360Z,99922.20
2022-08-17T13:21:11.796Z,99925.44
2022-08-17T14:03:42.285Z,99925.36
2022-08-17T14:06:12.067Z,99927.55
2022-08-17T14:10:36.879Z,99929.65
2022-08-17T14:12:27.184Z,99933.11
2022-08-17T14:15:54.731Z,99928.79
2022-08-17T14:18:55.529Z,99932.41
2022-08-17T14:21:20.200Z,99932.79
2022-08-17T14:23:57.793Z,99933.50
2022-08-17T14:26:28.203Z,99937.46
2022-08-17T14:29:15.665Z,99936.79
2022-08-17T14:32:01.819Z,99934.16
2022-08-17T14:34:40.356Z,99932.19
2022-08-17T14:37:39.258Z,99932.13
2022-08-17T14:40:50.001Z,99931.77
2022-08-17T14:43:19.971Z,99929.20
2022-08-17T14:50:40.653Z,99933.84
2022-08-17T14:53:09.982Z,99928.71
2022-08-17T14:55:39.315Z,99930.17
2022-08-17T14:58:07.037Z,99929.37
2022-08-17T15:00:34.278Z,99923.68
2022-08-17T15:03:02.152Z,99924.12
2022-08-17T15:05:32.945Z,99920.59
2022-08-17T15:08:01.133Z,99917.44
2022-08-17T15:10:29.482Z,99915.23
2022-08-17T15:12:57.492Z,99914.17
2022-08-17T15:15:24.715Z,99911.73
2022-08-17T15:17:51.825Z,99906.59
2022-08-17T15:20:23.032Z,99909.84
2022-08-17T15:22:54.778Z,99917.52
2022-08-17T15:25:23.026Z,99916.46
2022-08-17T15:27:50.421Z,99918.65
2022-08-17T15:30:17.784Z,99918.75
2022-08-17T15:32:50.791Z,99921.77
2022-08-17T15:35:28.286Z,99920.02
2022-08-17T15:37:57.907Z,99918.84
2022-08-17T15:40:24.879Z,99919.95
2022-08-17T15:42:52.178Z,99920.52
2022-08-17T15:45:26.444Z,99925.60
2022-08-17T15:47:53.976Z,99925.92
2022-08-17T15:50:20.850Z,99926.70
2022-08-17T15:52:54.344Z,99929.50
2022-08-17T15:55:24.169Z,99926.97
2022-08-17T15:57:51.549Z,99927.45
2022-08-17T16:00:19.758Z,99924.99
2022-08-17T16:03:44.508Z,99928.79
2022-08-17T16:05:34.929Z,99926.02
2022-08-17T16:08:02.209Z,99927.70
2022-08-17T16:10:35.257Z,99926.91
2022-08-17T16:13:03.898Z,99926.86
2022-08-17T16:15:31.513Z,99927.60
2022-08-17T16:17:58.477Z,99931.14
2022-08-17T16:20:25.579Z,99932.15
2022-08-17T16:22:53.179Z,99932.80
2022-08-17T16:25:51.974Z,99930.32
2022-08-17T16:28:16.395Z,99934.63
2022-08-17T16:30:43.645Z,99937.58
2022-08-17T16:33:11.902Z,99935.58
2022-08-17T16:35:39.123Z,99937.50
2022-08-17T16:38:07.294Z,99943.13
2022-08-17T16:40:35.908Z,99939.66
2022-08-17T16:43:09.916Z,99941.80
2022-08-17T16:45:39.583Z,99943.44
2022-08-17T16:48:07.352Z,99941.59
2022-08-17T16:50:35.757Z,99936.98
2022-08-17T16:53:09.838Z,99936.77
2022-08-17T16:55:37.771Z,99938.70
2022-08-17T16:58:30.705Z,99939.11
2022-08-17T17:00:58.850Z,99936.64
2022-08-17T17:14:58.881Z,99935.95
2022-08-17T17:18:10.045Z,99938.44
2022-08-17T17:21:25.798Z,99937.14
2022-08-17T17:24:54.895Z,99939.84
2022-08-17T17:28:15.278Z,99943.52
2022-08-17T17:31:18.635Z,99948.77
2022-08-17T17:33:52.421Z,99952.62
2022-08-17T17:36:23.227Z,99952.20
2022-08-17T17:39:19.660Z,99952.18
2022-08-17T17:41:57.564Z,99953.35
2022-08-17T17:45:33.329Z,99954.45
2022-08-17T17:48:00.612Z,99952.65
2022-08-17T17:51:16.518Z,99946.63
2022-08-17T17:54:21.944Z,99949.24
2022-08-17T17:57:31.468Z,99950.13
2022-08-17T18:00:46.729Z,99957.66
2022-08-17T18:03:43.043Z,99963.56
2022-08-17T18:06:46.079Z,99964.04
2022-08-17T18:09:51.963Z,99963.21
2022-08-17T18:12:44.317Z,99968.23
2022-08-17T18:16:42.075Z,99977.08
2022-08-17T18:21:13.206Z,99976.09
2022-08-17T18:31:31.071Z,99979.48
2022-08-17T18:34:58.705Z,99981.20
2022-08-17T18:42:42.423Z,99978.30
2022-08-17T18:45:42.951Z,99980.96
2022-08-17T18:49:00.479Z,99976.89
2022-08-17T18:52:42.966Z,99976.54
2022-08-17T18:55:32.088Z,99974.34
2022-08-17T18:58:24.279Z,99981.50
2022-08-17T19:01:21.191Z,99978.85
2022-08-17T19:03:53.812Z,99979.20
2022-08-17T19:27:20.673Z,99996.04
2022-08-17T19:29:51.463Z,99998.20
2022-08-17T19:29:57.363Z,99986.93
2022-08-17T19:32:31.334Z,99986.27
2022-08-17T19:35:02.691Z,99983.84
2022-08-17T19:37:54.058Z,99985.13
2022-08-17T19:40:54.844Z,99980.14
2022-08-17T19:43:55.147Z,99978.81
2022-08-17T19:46:42.965Z,99987.29
2022-08-17T19:49:23.484Z,99988.59
2022-08-17T19:52:21.691Z,99982.54
2022-08-17T19:55:19.850Z,99981.31
2022-08-17T19:58:25.641Z,99989.40
2022-08-17T20:00:53.919Z,99994.31
2022-08-17T20:03:29.791Z,99995.05
2022-08-17T20:06:15.308Z,99995.09
2022-08-17T20:08:58.313Z,100003.42
2022-08-17T20:11:44.859Z,100000.86
2022-08-17T20:14:20.116Z,100004.49
2022-08-17T20:16:47.718Z,100002.46
2022-08-17T20:19:43.257Z,100008.84
2022-08-17T20:22:17.980Z,100012.95
2022-08-17T20:25:01.227Z,100012.95
2022-08-17T20:27:33.730Z,100012.06
2022-08-17T20:30:04.091Z,100004.00
2022-08-17T20:32:37.538Z,100005.61
2022-08-17T20:35:37.924Z,100010.41
2022-08-17T20:38:10.559Z,100014.15
2022-08-17T20:41:00.616Z,100016.15
2022-08-17T20:43:33.913Z,100017.33
2022-08-17T20:46:09.906Z,100015.41
2022-08-17T20:48:43.182Z,100015.32
2022-08-17T20:51:29.273Z,100012.61
2022-08-17T20:54:06.053Z,100011.03
2022-08-17T20:56:59.907Z,100008.90
2022-08-17T20:59:28.098Z,100006.95
2022-08-17T21:02:17.539Z,100003.66
2022-08-17T21:04:49.715Z,100005.18
2022-08-17T21:07:28.829Z,100002.34
2022-08-17T21:10:13.990Z,100002.88
2022-08-17T21:12:47.893Z,100001.61
2022-08-17T21:15:43.718Z,99998.42
2022-08-17T21:18:48.569Z,99998.87
2022-08-17T21:21:17.579Z,99995.59
2022-08-17T21:23:47.749Z,99998.34
2022-08-17T21:26:30.969Z,100003.63
2022-08-17T21:29:01.713Z,100010.52
2022-08-17T21:32:03.707Z,100013.02
2022-08-17T21:34:42.007Z,100015.38
2022-08-17T21:37:29.484Z,100011.49
2022-08-17T21:40:19.198Z,100009.46
2022-08-17T21:43:25.248Z,100006.42
2022-08-17T21:46:09.798Z,100006.08
2022-08-17T21:48:48.130Z,100005.88
2022-08-17T21:51:26.965Z,100005.67
2022-08-17T21:53:59.595Z,100009.08
2022-08-17T21:56:34.290Z,100007.51
2022-08-17T21:59:08.151Z,100012.16
2022-08-17T22:01:39.668Z,100008.33
2022-08-17T22:04:24.266Z,100008.56
2022-08-17T22:06:57.041Z,100007.91
2022-08-17T22:09:42.779Z,100007.48
2022-08-17T22:12:23.747Z,100006.20
2022-08-17T22:15:03.659Z,100009.18
2022-08-17T22:17:36.058Z,100013.03
2022-08-17T22:20:13.863Z,100012.80
2022-08-17T22:23:08.619Z,100014.85
2022-08-17T22:25:40.168Z,100012.98
2022-08-17T22:28:10.512Z,100008.16
2022-08-17T22:31:00.565Z,100006.23
2022-08-17T22:33:49.356Z,100004.50
2022-08-17T22:36:38.626Z,100004.63
2022-08-17T22:39:08.505Z,100003.96
2022-08-17T22:41:35.320Z,100000.84
2022-08-17T22:44:14.713Z,100004.39
2022-08-17T22:46:48.715Z,100007.33
2022-08-17T22:49:53.608Z,99998.64
2022-08-17T22:52:21.277Z,99999.48
2022-08-17T22:55:09.455Z,100000.89
2022-08-17T22:57:55.133Z,99999.48
2022-08-17T23:00:31.080Z,99997.34
2022-08-17T23:03:11.827Z,99993.80
2022-08-17T23:05:45.894Z,99999.59
2022-08-17T23:08:20.564Z,99997.62
2022-08-17T23:10:48.212Z,100001.61
2022-08-17T23:13:15.362Z,100007.01
2022-08-17T23:15:42.522Z,100005.17
2022-08-17T23:18:09.961Z,100011.82
2022-08-17T23:20:40.013Z,100012.77
2022-08-17T23:23:08.568Z,100011.05
2022-08-17T23:25:36.516Z,100007.60
2022-08-17T23:28:06.156Z,100008.48
2022-08-17T23:30:38.905Z,100014.11
2022-08-17T23:33:09.927Z,100013.91
2022-08-17T23:35:40.578Z,100007.59
2022-08-17T23:38:10.300Z,100010.38
2022-08-17T23:40:39.612Z,100012.98
2022-08-17T23:43:17.591Z,100008.89
2022-08-17T23:45:59.770Z,100008.72
2022-08-17T23:48:28.632Z,100009.36
2022-08-17T23:51:08.734Z,100011.00
2022-08-17T23:53:41.417Z,100005.98
2022-08-17T23:56:11.211Z,100008.23
2022-08-17T23:58:43.155Z,100006.63
